VHHH/HKG METAR and TAF weather

Enter ICAO airport designator
Station Type Date Time Source
VHHH METAR 2019/08/23 18:30 UTC NOAA

VHHH 231830Z 18003KT 060V220 9999 FEW035 28/24 Q1004 NOSIG


Station Type Date Time Source
VHHH Decoded METAR 2019/08/23 18:30 UTC NOAA

Station name not available
Aug 23, 2019 - 02:30 PM EDT / 2019.08.23 1830 UTC
Wind: from the S (180 degrees) at 3 MPH (3 KT) (direction variable):0
Visibility: greater than 7 mile(s):0
Sky conditions: mostly clear
Temperature: 82 F (28 C)
Dew Point: 75 F (24 C)
Relative Humidity: 78%
Pressure (altimeter): 29.65 in. Hg (1004 hPa)
ob: VHHH 231830Z 18003KT 060V220 9999 FEW035 28/24 Q1004 NOSIG
cycle: 18

Station Type Date Time Source
VHHH TAF 2019/08/23 18:26 UTC NOAA

TAF VHHH 231700Z 2318/2424 VRB05KT 8000 FEW030 TX35/2407Z TN28/2322Z TN27/2422Z
BECMG 2321/2323 32010KT
TEMPO 2403/2407 4000 HZ
BECMG 2405/2407 26015KT
TEMPO 2407/2413 VRB15G25KT 3000 -TSRA SHRA FEW012CB SCT025
TEMPO 2418/2424 24020G30KT 2500 TSRA SHRA FEW010CB SCT020

Example: see airport list